sensor_id;sensor_type;location;lat;lon;timestamp;temperature;humidity
22645;DHT22;11489;50.834;6.752;2023-03-21T00:02:08;10.30;81.60
22645;DHT22;11489;50.834;6.752;2023-03-21T00:04:35;10.30;81.70
22645;DHT22;11489;50.834;6.752;2023-03-21T00:07:00;10.40;81.80
22645;DHT22;11489;50.834;6.752;2023-03-21T00:09:26;10.30;81.80
22645;DHT22;11489;50.834;6.752;2023-03-21T00:11:52;10.30;81.80
22645;DHT22;11489;50.834;6.752;2023-03-21T00:14:18;10.30;81.80
22645;DHT22;11489;50.834;6.752;2023-03-21T00:16:45;10.30;81.80
22645;DHT22;11489;50.834;6.752;2023-03-21T00:19:16;10.30;81.80
22645;DHT22;11489;50.834;6.752;2023-03-21T00:21:42;10.30;81.90
22645;DHT22;11489;50.834;6.752;2023-03-21T00:24:08;10.30;81.90
22645;DHT22;11489;50.834;6.752;2023-03-21T00:26:34;10.20;81.90
22645;DHT22;11489;50.834;6.752;2023-03-21T00:29:00;10.20;82.00
22645;DHT22;11489;50.834;6.752;2023-03-21T00:31:26;10.20;82.00
22645;DHT22;11489;50.834;6.752;2023-03-21T00:33:51;10.20;82.00
22645;DHT22;11489;50.834;6.752;2023-03-21T00:36:17;10.20;82.10
22645;DHT22;11489;50.834;6.752;2023-03-21T00:38:43;10.20;82.10
22645;DHT22;11489;50.834;6.752;2023-03-21T00:41:11;10.20;82.20
22645;DHT22;11489;50.834;6.752;2023-03-21T00:43:39;10.20;82.20
22645;DHT22;11489;50.834;6.752;2023-03-21T00:46:06;10.20;82.30
22645;DHT22;11489;50.834;6.752;2023-03-21T00:48:31;10.20;82.30
22645;DHT22;11489;50.834;6.752;2023-03-21T00:50:58;10.20;82.40
22645;DHT22;11489;50.834;6.752;2023-03-21T00:53:26;10.20;82.40
22645;DHT22;11489;50.834;6.752;2023-03-21T00:55:51;10.20;82.40
22645;DHT22;11489;50.834;6.752;2023-03-21T00:58:17;10.20;82.40
22645;DHT22;11489;50.834;6.752;2023-03-21T01:00:44;10.20;83.20
22645;DHT22;11489;50.834;6.752;2023-03-21T01:03:14;10.20;82.50
22645;DHT22;11489;50.834;6.752;2023-03-21T01:05:42;10.20;82.50
22645;DHT22;11489;50.834;6.752;2023-03-21T01:08:27;10.20;82.60
22645;DHT22;11489;50.834;6.752;2023-03-21T01:10:53;10.20;82.60
22645;DHT22;11489;50.834;6.752;2023-03-21T01:13:23;10.20;82.50
22645;DHT22;11489;50.834;6.752;2023-03-21T01:15:51;10.20;82.60
22645;DHT22;11489;50.834;6.752;2023-03-21T01:18:19;10.20;82.60
22645;DHT22;11489;50.834;6.752;2023-03-21T01:20:46;10.20;82.70
22645;DHT22;11489;50.834;6.752;2023-03-21T01:23:13;10.20;82.70
22645;DHT22;11489;50.834;6.752;2023-03-21T01:25:40;10.20;82.70
22645;DHT22;11489;50.834;6.752;2023-03-21T01:28:06;10.20;82.80
22645;DHT22;11489;50.834;6.752;2023-03-21T01:30:32;10.20;82.80
22645;DHT22;11489;50.834;6.752;2023-03-21T01:32:58;10.20;82.80
22645;DHT22;11489;50.834;6.752;2023-03-21T01:35:24;10.20;82.80
22645;DHT22;11489;50.834;6.752;2023-03-21T01:37:50;10.20;82.90
22645;DHT22;11489;50.834;6.752;2023-03-21T01:40:26;10.20;83.00
22645;DHT22;11489;50.834;6.752;2023-03-21T01:42:52;10.20;82.90
22645;DHT22;11489;50.834;6.752;2023-03-21T01:48:22;10.20;82.80
22645;DHT22;11489;50.834;6.752;2023-03-21T01:50:49;10.20;83.10
22645;DHT22;11489;50.834;6.752;2023-03-21T01:53:18;10.20;83.10
22645;DHT22;11489;50.834;6.752;2023-03-21T01:55:45;10.10;83.00
22645;DHT22;11489;50.834;6.752;2023-03-21T01:58:13;10.10;83.10
22645;DHT22;11489;50.834;6.752;2023-03-21T02:00:43;10.10;83.10
22645;DHT22;11489;50.834;6.752;2023-03-21T02:03:09;10.10;83.10
22645;DHT22;11489;50.834;6.752;2023-03-21T02:08:26;10.10;83.00
22645;DHT22;11489;50.834;6.752;2023-03-21T02:10:53;10.10;83.40
22645;DHT22;11489;50.834;6.752;2023-03-21T02:13:18;10.10;83.40
22645;DHT22;11489;50.834;6.752;2023-03-21T02:15:56;10.10;83.40
22645;DHT22;11489;50.834;6.752;2023-03-21T02:26:36;10.10;83.50
22645;DHT22;11489;50.834;6.752;2023-03-21T02:32:19;10.00;84.00
22645;DHT22;11489;50.834;6.752;2023-03-21T02:35:24;10.00;83.60
22645;DHT22;11489;50.834;6.752;2023-03-21T02:38:07;10.00;83.70
22645;DHT22;11489;50.834;6.752;2023-03-21T02:40:42;10.00;83.80
22645;DHT22;11489;50.834;6.752;2023-03-21T02:46:31;10.00;83.90
22645;DHT22;11489;50.834;6.752;2023-03-21T02:49:30;10.00;84.10
22645;DHT22;11489;50.834;6.752;2023-03-21T02:51:56;10.00;84.00
22645;DHT22;11489;50.834;6.752;2023-03-21T02:54:23;10.00;84.20
22645;DHT22;11489;50.834;6.752;2023-03-21T02:56:51;10.00;84.20
22645;DHT22;11489;50.834;6.752;2023-03-21T02:59:20;10.00;84.20
22645;DHT22;11489;50.834;6.752;2023-03-21T03:01:46;10.00;84.30
22645;DHT22;11489;50.834;6.752;2023-03-21T03:04:22;10.00;84.30
22645;DHT22;11489;50.834;6.752;2023-03-21T03:09:42;10.00;84.30
22645;DHT22;11489;50.834;6.752;2023-03-21T03:12:28;10.00;83.90
22645;DHT22;11489;50.834;6.752;2023-03-21T03:15:11;10.00;84.00
22645;DHT22;11489;50.834;6.752;2023-03-21T03:17:53;10.00;84.00
22645;DHT22;11489;50.834;6.752;2023-03-21T03:23:57;10.00;83.90
22645;DHT22;11489;50.834;6.752;2023-03-21T03:29:27;9.90;83.90
22645;DHT22;11489;50.834;6.752;2023-03-21T03:32:01;9.90;84.20
22645;DHT22;11489;50.834;6.752;2023-03-21T03:34:31;9.80;84.20
22645;DHT22;11489;50.834;6.752;2023-03-21T03:37:02;9.90;85.00
22645;DHT22;11489;50.834;6.752;2023-03-21T03:39:34;9.80;84.30
22645;DHT22;11489;50.834;6.752;2023-03-21T03:42:11;9.80;84.40
22645;DHT22;11489;50.834;6.752;2023-03-21T03:44:39;9.80;84.50
22645;DHT22;11489;50.834;6.752;2023-03-21T03:49:53;9.80;84.70
22645;DHT22;11489;50.834;6.752;2023-03-21T03:52:30;9.80;84.50
22645;DHT22;11489;50.834;6.752;2023-03-21T03:54:58;9.80;84.60
22645;DHT22;11489;50.834;6.752;2023-03-21T03:57:25;9.80;84.80
22645;DHT22;11489;50.834;6.752;2023-03-21T03:59:51;9.80;84.80
22645;DHT22;11489;50.834;6.752;2023-03-21T04:02:17;9.80;84.80
22645;DHT22;11489;50.834;6.752;2023-03-21T04:04:44;9.80;84.90
22645;DHT22;11489;50.834;6.752;2023-03-21T04:07:11;9.80;84.90
22645;DHT22;11489;50.834;6.752;2023-03-21T04:09:37;9.80;84.90
22645;DHT22;11489;50.834;6.752;2023-03-21T04:12:03;9.80;85.00
22645;DHT22;11489;50.834;6.752;2023-03-21T04:14:29;9.80;85.00
22645;DHT22;11489;50.834;6.752;2023-03-21T04:16:54;9.80;85.70
22645;DHT22;11489;50.834;6.752;2023-03-21T04:19:20;9.80;85.00
22645;DHT22;11489;50.834;6.752;2023-03-21T04:21:46;9.80;85.10
22645;DHT22;11489;50.834;6.752;2023-03-21T04:24:12;9.80;85.10
22645;DHT22;11489;50.834;6.752;2023-03-21T04:26:38;9.80;85.10
22645;DHT22;11489;50.834;6.752;2023-03-21T04:29:05;9.80;85.10
22645;DHT22;11489;50.834;6.752;2023-03-21T04:31:32;9.80;85.10
22645;DHT22;11489;50.834;6.752;2023-03-21T04:34:00;9.80;85.10
22645;DHT22;11489;50.834;6.752;2023-03-21T04:36:27;9.80;85.20
22645;DHT22;11489;50.834;6.752;2023-03-21T04:38:58;9.80;85.20
22645;DHT22;11489;50.834;6.752;2023-03-21T04:41:29;9.80;85.20
22645;DHT22;11489;50.834;6.752;2023-03-21T04:43:55;9.80;85.30
22645;DHT22;11489;50.834;6.752;2023-03-21T04:46:21;9.80;85.30
22645;DHT22;11489;50.834;6.752;2023-03-21T04:48:47;9.80;85.30
22645;DHT22;11489;50.834;6.752;2023-03-21T04:51:14;9.80;85.30
22645;DHT22;11489;50.834;6.752;2023-03-21T04:53:40;9.80;85.30
22645;DHT22;11489;50.834;6.752;2023-03-21T04:56:10;9.80;85.40
22645;DHT22;11489;50.834;6.752;2023-03-21T04:58:36;9.80;85.40
22645;DHT22;11489;50.834;6.752;2023-03-21T05:01:02;9.80;85.40
22645;DHT22;11489;50.834;6.752;2023-03-21T05:03:30;9.80;85.40
22645;DHT22;11489;50.834;6.752;2023-03-21T05:05:59;9.80;85.40
22645;DHT22;11489;50.834;6.752;2023-03-21T05:08:25;9.90;85.40
22645;DHT22;11489;50.834;6.752;2023-03-21T05:10:51;9.90;85.40
22645;DHT22;11489;50.834;6.752;2023-03-21T05:13:17;9.90;85.40
22645;DHT22;11489;50.834;6.752;2023-03-21T05:15:43;9.80;85.40
22645;DHT22;11489;50.834;6.752;2023-03-21T05:18:08;9.80;85.40
22645;DHT22;11489;50.834;6.752;2023-03-21T05:20:40;9.80;85.40
22645;DHT22;11489;50.834;6.752;2023-03-21T05:23:10;9.80;85.40
22645;DHT22;11489;50.834;6.752;2023-03-21T05:25:39;9.80;85.40
22645;DHT22;11489;50.834;6.752;2023-03-21T05:28:05;9.80;85.40
22645;DHT22;11489;50.834;6.752;2023-03-21T05:30:32;9.70;85.40
22645;DHT22;11489;50.834;6.752;2023-03-21T05:32:58;9.70;85.50
22645;DHT22;11489;50.834;6.752;2023-03-21T05:35:25;9.70;85.60
22645;DHT22;11489;50.834;6.752;2023-03-21T05:37:51;9.70;85.70
22645;DHT22;11489;50.834;6.752;2023-03-21T05:40:18;9.70;85.80
22645;DHT22;11489;50.834;6.752;2023-03-21T05:42:45;9.70;85.80
22645;DHT22;11489;50.834;6.752;2023-03-21T05:45:12;9.70;86.00
22645;DHT22;11489;50.834;6.752;2023-03-21T05:47:37;9.60;86.00
22645;DHT22;11489;50.834;6.752;2023-03-21T05:50:03;9.60;86.10
22645;DHT22;11489;50.834;6.752;2023-03-21T05:52:29;9.70;86.30
22645;DHT22;11489;50.834;6.752;2023-03-21T05:54:55;9.70;86.40
22645;DHT22;11489;50.834;6.752;2023-03-21T05:57:20;9.60;86.40
22645;DHT22;11489;50.834;6.752;2023-03-21T05:59:47;9.70;86.50
22645;DHT22;11489;50.834;6.752;2023-03-21T06:02:12;9.70;86.60
22645;DHT22;11489;50.834;6.752;2023-03-21T06:04:38;9.70;86.70
22645;DHT22;11489;50.834;6.752;2023-03-21T06:07:04;9.70;86.80
22645;DHT22;11489;50.834;6.752;2023-03-21T06:09:29;9.70;86.80
22645;DHT22;11489;50.834;6.752;2023-03-21T06:11:56;9.80;86.90
22645;DHT22;11489;50.834;6.752;2023-03-21T06:14:23;9.80;86.90
22645;DHT22;11489;50.834;6.752;2023-03-21T06:16:49;9.80;86.90
22645;DHT22;11489;50.834;6.752;2023-03-21T06:19:15;9.80;86.90
22645;DHT22;11489;50.834;6.752;2023-03-21T06:21:41;9.80;86.90
22645;DHT22;11489;50.834;6.752;2023-03-21T06:24:07;9.80;86.90
22645;DHT22;11489;50.834;6.752;2023-03-21T06:26:33;9.90;87.00
22645;DHT22;11489;50.834;6.752;2023-03-21T06:28:59;9.80;86.90
22645;DHT22;11489;50.834;6.752;2023-03-21T06:31:25;9.80;86.90
22645;DHT22;11489;50.834;6.752;2023-03-21T06:33:51;9.80;86.90
22645;DHT22;11489;50.834;6.752;2023-03-21T06:36:18;9.80;86.90
22645;DHT22;11489;50.834;6.752;2023-03-21T06:38:44;9.80;87.00
22645;DHT22;11489;50.834;6.752;2023-03-21T06:41:11;9.80;87.00
22645;DHT22;11489;50.834;6.752;2023-03-21T06:43:37;9.80;87.10
22645;DHT22;11489;50.834;6.752;2023-03-21T06:46:03;9.70;87.20
22645;DHT22;11489;50.834;6.752;2023-03-21T06:48:30;9.80;87.40
22645;DHT22;11489;50.834;6.752;2023-03-21T06:50:56;9.70;87.50
22645;DHT22;11489;50.834;6.752;2023-03-21T06:53:22;9.70;88.30
22645;DHT22;11489;50.834;6.752;2023-03-21T06:55:55;9.70;87.80
22645;DHT22;11489;50.834;6.752;2023-03-21T06:58:23;9.70;87.90
22645;DHT22;11489;50.834;6.752;2023-03-21T07:00:49;9.60;88.00
22645;DHT22;11489;50.834;6.752;2023-03-21T07:03:15;9.60;88.10
22645;DHT22;11489;50.834;6.752;2023-03-21T07:05:41;9.60;88.30
22645;DHT22;11489;50.834;6.752;2023-03-21T07:08:08;9.60;88.40
22645;DHT22;11489;50.834;6.752;2023-03-21T07:10:42;9.60;88.50
22645;DHT22;11489;50.834;6.752;2023-03-21T07:13:08;9.60;88.70
22645;DHT22;11489;50.834;6.752;2023-03-21T07:15:34;9.60;88.70
22645;DHT22;11489;50.834;6.752;2023-03-21T07:18:03;9.60;88.90
22645;DHT22;11489;50.834;6.752;2023-03-21T07:20:30;9.50;89.00
22645;DHT22;11489;50.834;6.752;2023-03-21T07:22:56;9.50;89.20
22645;DHT22;11489;50.834;6.752;2023-03-21T07:25:22;9.50;89.40
22645;DHT22;11489;50.834;6.752;2023-03-21T07:27:48;9.50;89.50
22645;DHT22;11489;50.834;6.752;2023-03-21T07:30:13;9.50;89.70
22645;DHT22;11489;50.834;6.752;2023-03-21T07:32:40;9.50;89.70
22645;DHT22;11489;50.834;6.752;2023-03-21T07:35:07;9.50;89.90
22645;DHT22;11489;50.834;6.752;2023-03-21T07:37:33;9.50;90.00
22645;DHT22;11489;50.834;6.752;2023-03-21T07:39:59;9.50;90.00
22645;DHT22;11489;50.834;6.752;2023-03-21T07:42:24;9.50;90.10
22645;DHT22;11489;50.834;6.752;2023-03-21T07:44:50;9.50;90.10
22645;DHT22;11489;50.834;6.752;2023-03-21T07:47:17;9.50;90.20
22645;DHT22;11489;50.834;6.752;2023-03-21T07:49:42;9.60;90.20
22645;DHT22;11489;50.834;6.752;2023-03-21T07:52:08;9.60;90.20
22645;DHT22;11489;50.834;6.752;2023-03-21T07:54:34;9.60;90.20
22645;DHT22;11489;50.834;6.752;2023-03-21T07:56:59;9.60;90.20
22645;DHT22;11489;50.834;6.752;2023-03-21T07:59:25;9.60;90.20
22645;DHT22;11489;50.834;6.752;2023-03-21T08:01:51;9.60;90.20
22645;DHT22;11489;50.834;6.752;2023-03-21T08:04:17;9.60;90.20
22645;DHT22;11489;50.834;6.752;2023-03-21T08:06:42;9.60;90.30
22645;DHT22;11489;50.834;6.752;2023-03-21T08:09:08;9.60;90.30
22645;DHT22;11489;50.834;6.752;2023-03-21T08:11:34;9.70;90.40
22645;DHT22;11489;50.834;6.752;2023-03-21T08:14:00;9.60;90.40
22645;DHT22;11489;50.834;6.752;2023-03-21T08:16:26;9.70;90.50
22645;DHT22;11489;50.834;6.752;2023-03-21T08:18:52;9.70;90.60
22645;DHT22;11489;50.834;6.752;2023-03-21T08:21:18;9.70;90.60
22645;DHT22;11489;50.834;6.752;2023-03-21T08:23:43;9.70;90.60
22645;DHT22;11489;50.834;6.752;2023-03-21T08:26:09;9.80;90.70
22645;DHT22;11489;50.834;6.752;2023-03-21T08:28:36;9.80;90.70
22645;DHT22;11489;50.834;6.752;2023-03-21T08:31:07;9.80;90.70
22645;DHT22;11489;50.834;6.752;2023-03-21T08:33:33;9.90;90.70
22645;DHT22;11489;50.834;6.752;2023-03-21T08:36:00;9.90;90.70
22645;DHT22;11489;50.834;6.752;2023-03-21T08:38:25;9.90;90.70
22645;DHT22;11489;50.834;6.752;2023-03-21T08:40:57;9.90;90.70
22645;DHT22;11489;50.834;6.752;2023-03-21T08:43:25;9.90;90.80
22645;DHT22;11489;50.834;6.752;2023-03-21T08:45:51;9.90;90.60
22645;DHT22;11489;50.834;6.752;2023-03-21T08:48:17;10.00;90.60
22645;DHT22;11489;50.834;6.752;2023-03-21T08:50:42;10.00;90.70
22645;DHT22;11489;50.834;6.752;2023-03-21T08:53:08;10.00;90.70
22645;DHT22;11489;50.834;6.752;2023-03-21T08:55:34;10.00;90.60
22645;DHT22;11489;50.834;6.752;2023-03-21T08:58:00;10.00;90.60
22645;DHT22;11489;50.834;6.752;2023-03-21T09:00:27;10.00;90.60
22645;DHT22;11489;50.834;6.752;2023-03-21T09:02:53;10.00;90.50
22645;DHT22;11489;50.834;6.752;2023-03-21T09:05:20;9.90;90.50
22645;DHT22;11489;50.834;6.752;2023-03-21T09:07:46;10.00;90.60
22645;DHT22;11489;50.834;6.752;2023-03-21T09:10:18;9.90;90.70
22645;DHT22;11489;50.834;6.752;2023-03-21T09:12:45;10.00;90.90
22645;DHT22;11489;50.834;6.752;2023-03-21T09:15:11;10.00;91.00
22645;DHT22;11489;50.834;6.752;2023-03-21T09:17:38;10.00;91.10
22645;DHT22;11489;50.834;6.752;2023-03-21T09:20:10;10.10;91.30
22645;DHT22;11489;50.834;6.752;2023-03-21T09:22:42;10.10;91.20
22645;DHT22;11489;50.834;6.752;2023-03-21T09:25:08;10.20;91.20
22645;DHT22;11489;50.834;6.752;2023-03-21T09:27:36;10.20;91.10
22645;DHT22;11489;50.834;6.752;2023-03-21T09:30:03;10.30;91.10
22645;DHT22;11489;50.834;6.752;2023-03-21T09:32:30;10.30;91.00
22645;DHT22;11489;50.834;6.752;2023-03-21T09:34:56;10.30;91.00
22645;DHT22;11489;50.834;6.752;2023-03-21T09:37:22;10.40;90.90
22645;DHT22;11489;50.834;6.752;2023-03-21T09:39:48;10.40;90.90
22645;DHT22;11489;50.834;6.752;2023-03-21T09:42:28;10.40;90.90
22645;DHT22;11489;50.834;6.752;2023-03-21T09:47:43;10.40;90.80
22645;DHT22;11489;50.834;6.752;2023-03-21T09:50:23;10.40;90.80
22645;DHT22;11489;50.834;6.752;2023-03-21T09:55:34;10.40;90.90
22645;DHT22;11489;50.834;6.752;2023-03-21T10:00:32;10.40;90.90
22645;DHT22;11489;50.834;6.752;2023-03-21T10:03:03;10.40;90.90
22645;DHT22;11489;50.834;6.752;2023-03-21T10:05:32;10.40;90.90
22645;DHT22;11489;50.834;6.752;2023-03-21T10:08:12;10.40;90.90
22645;DHT22;11489;50.834;6.752;2023-03-21T10:10:50;10.40;90.90
22645;DHT22;11489;50.834;6.752;2023-03-21T10:13:31;10.50;90.90
22645;DHT22;11489;50.834;6.752;2023-03-21T10:16:00;10.50;90.90
22645;DHT22;11489;50.834;6.752;2023-03-21T10:18:29;10.50;90.90
22645;DHT22;11489;50.834;6.752;2023-03-21T10:20:55;10.50;91.00
22645;DHT22;11489;50.834;6.752;2023-03-21T10:23:24;10.50;91.00
22645;DHT22;11489;50.834;6.752;2023-03-21T10:25:58;10.50;91.10
22645;DHT22;11489;50.834;6.752;2023-03-21T10:28:33;10.60;91.10
22645;DHT22;11489;50.834;6.752;2023-03-21T10:31:05;10.60;91.10
22645;DHT22;11489;50.834;6.752;2023-03-21T10:33:35;10.70;91.30
22645;DHT22;11489;50.834;6.752;2023-03-21T10:36:06;10.70;91.40
22645;DHT22;11489;50.834;6.752;2023-03-21T10:38:33;10.80;91.50
22645;DHT22;11489;50.834;6.752;2023-03-21T10:40:59;10.90;91.60
22645;DHT22;11489;50.834;6.752;2023-03-21T10:46:20;11.10;91.70
22645;DHT22;11489;50.834;6.752;2023-03-21T10:48:52;11.30;91.50
22645;DHT22;11489;50.834;6.752;2023-03-21T10:51:20;11.40;91.40
22645;DHT22;11489;50.834;6.752;2023-03-21T10:53:51;11.50;91.60
22645;DHT22;11489;50.834;6.752;2023-03-21T10:56:22;11.50;91.00
22645;DHT22;11489;50.834;6.752;2023-03-21T10:58:50;11.60;90.80
22645;DHT22;11489;50.834;6.752;2023-03-21T11:01:28;11.60;90.60
22645;DHT22;11489;50.834;6.752;2023-03-21T11:03:59;11.70;90.50
22645;DHT22;11489;50.834;6.752;2023-03-21T11:06:28;11.70;90.50
22645;DHT22;11489;50.834;6.752;2023-03-21T11:09:00;11.70;90.50
22645;DHT22;11489;50.834;6.752;2023-03-21T11:11:38;11.70;90.40
22645;DHT22;11489;50.834;6.752;2023-03-21T11:14:06;11.70;90.40
22645;DHT22;11489;50.834;6.752;2023-03-21T11:16:42;11.70;90.40
22645;DHT22;11489;50.834;6.752;2023-03-21T11:19:31;11.70;90.20
22645;DHT22;11489;50.834;6.752;2023-03-21T11:22:02;11.70;90.00
22645;DHT22;11489;50.834;6.752;2023-03-21T11:24:29;11.70;90.30
22645;DHT22;11489;50.834;6.752;2023-03-21T11:26:56;11.70;90.10
22645;DHT22;11489;50.834;6.752;2023-03-21T11:29:32;11.70;90.20
22645;DHT22;11489;50.834;6.752;2023-03-21T11:32:01;11.60;90.10
22645;DHT22;11489;50.834;6.752;2023-03-21T11:35:41;11.60;90.20
22645;DHT22;11489;50.834;6.752;2023-03-21T11:40:31;11.60;90.10
22645;DHT22;11489;50.834;6.752;2023-03-21T11:43:27;11.60;89.60
22645;DHT22;11489;50.834;6.752;2023-03-21T11:48:26;11.50;90.00
22645;DHT22;11489;50.834;6.752;2023-03-21T11:50:59;11.40;90.10
22645;DHT22;11489;50.834;6.752;2023-03-21T11:53:31;11.40;90.10
22645;DHT22;11489;50.834;6.752;2023-03-21T12:06:52;11.30;90.50
22645;DHT22;11489;50.834;6.752;2023-03-21T12:12:46;11.20;90.70
22645;DHT22;11489;50.834;6.752;2023-03-21T12:15:32;11.20;90.70
22645;DHT22;11489;50.834;6.752;2023-03-21T12:21:22;11.30;91.00
22645;DHT22;11489;50.834;6.752;2023-03-21T12:24:01;11.40;91.10
22645;DHT22;11489;50.834;6.752;2023-03-21T12:26:31;11.40;91.20
22645;DHT22;11489;50.834;6.752;2023-03-21T12:32:00;11.60;91.10
22645;DHT22;11489;50.834;6.752;2023-03-21T12:35:05;11.70;91.30
22645;DHT22;11489;50.834;6.752;2023-03-21T12:43:03;11.90;91.20
22645;DHT22;11489;50.834;6.752;2023-03-21T12:45:34;12.00;91.20
22645;DHT22;11489;50.834;6.752;2023-03-21T12:50:40;12.20;90.90
22645;DHT22;11489;50.834;6.752;2023-03-21T12:53:41;12.30;91.00
22645;DHT22;11489;50.834;6.752;2023-03-21T12:56:14;12.40;90.60
22645;DHT22;11489;50.834;6.752;2023-03-21T12:58:48;12.40;90.60
22645;DHT22;11489;50.834;6.752;2023-03-21T13:01:17;12.50;90.50
22645;DHT22;11489;50.834;6.752;2023-03-21T13:03:49;12.50;90.60
22645;DHT22;11489;50.834;6.752;2023-03-21T13:06:17;12.50;90.60
22645;DHT22;11489;50.834;6.752;2023-03-21T13:09:04;12.60;90.70
22645;DHT22;11489;50.834;6.752;2023-03-21T13:11:32;12.70;90.30
22645;DHT22;11489;50.834;6.752;2023-03-21T13:14:07;12.70;90.70
22645;DHT22;11489;50.834;6.752;2023-03-21T13:16:52;12.80;90.40
22645;DHT22;11489;50.834;6.752;2023-03-21T13:24:44;13.00;90.10
22645;DHT22;11489;50.834;6.752;2023-03-21T13:29:52;13.00;89.40
22645;DHT22;11489;50.834;6.752;2023-03-21T13:32:27;13.10;90.20
22645;DHT22;11489;50.834;6.752;2023-03-21T13:35:15;13.10;90.10
22645;DHT22;11489;50.834;6.752;2023-03-21T13:37:43;13.20;89.00
22645;DHT22;11489;50.834;6.752;2023-03-21T13:40:26;13.10;90.10
22645;DHT22;11489;50.834;6.752;2023-03-21T13:43:02;13.20;89.70
22645;DHT22;11489;50.834;6.752;2023-03-21T13:45:44;13.20;90.20
22645;DHT22;11489;50.834;6.752;2023-03-21T13:48:29;13.30;90.10
22645;DHT22;11489;50.834;6.752;2023-03-21T13:51:03;13.40;89.30
22645;DHT22;11489;50.834;6.752;2023-03-21T13:53:40;13.40;90.00
22645;DHT22;11489;50.834;6.752;2023-03-21T13:56:19;13.50;90.00
22645;DHT22;11489;50.834;6.752;2023-03-21T14:03:45;13.70;89.90
22645;DHT22;11489;50.834;6.752;2023-03-21T14:06:12;13.80;90.20
22645;DHT22;11489;50.834;6.752;2023-03-21T14:08:42;13.80;90.00
22645;DHT22;11489;50.834;6.752;2023-03-21T14:11:12;13.90;89.90
22645;DHT22;11489;50.834;6.752;2023-03-21T14:13:42;13.90;89.30
22645;DHT22;11489;50.834;6.752;2023-03-21T14:16:14;14.00;89.20
22645;DHT22;11489;50.834;6.752;2023-03-21T14:18:44;14.00;88.60
22645;DHT22;11489;50.834;6.752;2023-03-21T14:21:20;14.00;88.80
22645;DHT22;11489;50.834;6.752;2023-03-21T14:23:53;14.00;87.60
22645;DHT22;11489;50.834;6.752;2023-03-21T14:26:20;14.00;88.30
22645;DHT22;11489;50.834;6.752;2023-03-21T14:28:48;14.00;88.50
22645;DHT22;11489;50.834;6.752;2023-03-21T14:31:17;14.00;88.40
22645;DHT22;11489;50.834;6.752;2023-03-21T14:33:51;14.00;88.60
22645;DHT22;11489;50.834;6.752;2023-03-21T14:36:44;14.00;88.10
22645;DHT22;11489;50.834;6.752;2023-03-21T14:39:22;14.10;86.90
22645;DHT22;11489;50.834;6.752;2023-03-21T14:41:50;14.10;88.00
22645;DHT22;11489;50.834;6.752;2023-03-21T14:44:24;14.10;88.80
22645;DHT22;11489;50.834;6.752;2023-03-21T14:47:15;14.10;88.40
22645;DHT22;11489;50.834;6.752;2023-03-21T14:49:41;14.20;87.50
22645;DHT22;11489;50.834;6.752;2023-03-21T14:52:15;14.30;89.10
22645;DHT22;11489;50.834;6.752;2023-03-21T14:54:44;14.40;88.60
22645;DHT22;11489;50.834;6.752;2023-03-21T14:57:19;14.40;88.90
22645;DHT22;11489;50.834;6.752;2023-03-21T14:59:47;14.50;88.10
22645;DHT22;11489;50.834;6.752;2023-03-21T15:02:24;14.60;88.60
22645;DHT22;11489;50.834;6.752;2023-03-21T15:04:53;14.70;87.90
22645;DHT22;11489;50.834;6.752;2023-03-21T15:07:27;14.80;88.30
22645;DHT22;11489;50.834;6.752;2023-03-21T15:09:56;14.90;87.60
22645;DHT22;11489;50.834;6.752;2023-03-21T15:12:22;15.00;88.10
22645;DHT22;11489;50.834;6.752;2023-03-21T15:14:48;15.10;88.20
22645;DHT22;11489;50.834;6.752;2023-03-21T15:17:14;15.20;88.00
22645;DHT22;11489;50.834;6.752;2023-03-21T15:19:40;15.40;87.80
22645;DHT22;11489;50.834;6.752;2023-03-21T15:22:30;15.50;87.50
22645;DHT22;11489;50.834;6.752;2023-03-21T15:25:01;15.70;84.70
22645;DHT22;11489;50.834;6.752;2023-03-21T15:27:30;15.80;85.90
22645;DHT22;11489;50.834;6.752;2023-03-21T15:29:57;15.90;84.80
22645;DHT22;11489;50.834;6.752;2023-03-21T15:32:25;15.90;84.50
22645;DHT22;11489;50.834;6.752;2023-03-21T15:35:04;15.90;84.60
22645;DHT22;11489;50.834;6.752;2023-03-21T15:37:34;15.90;83.00
22645;DHT22;11489;50.834;6.752;2023-03-21T15:40:12;15.90;84.10
22645;DHT22;11489;50.834;6.752;2023-03-21T15:42:40;15.90;83.20
22645;DHT22;11489;50.834;6.752;2023-03-21T15:45:23;15.90;85.00
22645;DHT22;11489;50.834;6.752;2023-03-21T15:48:06;16.00;82.80
22645;DHT22;11489;50.834;6.752;2023-03-21T15:50:38;16.10;82.00
22645;DHT22;11489;50.834;6.752;2023-03-21T15:53:10;16.30;83.70
22645;DHT22;11489;50.834;6.752;2023-03-21T15:55:42;16.30;85.10
22645;DHT22;11489;50.834;6.752;2023-03-21T15:58:21;16.50;83.10
22645;DHT22;11489;50.834;6.752;2023-03-21T16:00:54;16.60;83.00
22645;DHT22;11489;50.834;6.752;2023-03-21T16:03:35;16.70;83.30
22645;DHT22;11489;50.834;6.752;2023-03-21T16:08:51;16.80;81.10
22645;DHT22;11489;50.834;6.752;2023-03-21T16:11:25;16.90;80.50
22645;DHT22;11489;50.834;6.752;2023-03-21T16:13:53;16.80;80.50
22645;DHT22;11489;50.834;6.752;2023-03-21T16:16:23;16.80;81.40
22645;DHT22;11489;50.834;6.752;2023-03-21T16:18:49;16.80;81.20
22645;DHT22;11489;50.834;6.752;2023-03-21T16:21:18;16.80;81.20
22645;DHT22;11489;50.834;6.752;2023-03-21T16:23:45;16.80;80.70
22645;DHT22;11489;50.834;6.752;2023-03-21T16:26:13;16.80;80.70
22645;DHT22;11489;50.834;6.752;2023-03-21T16:28:41;16.80;80.40
22645;DHT22;11489;50.834;6.752;2023-03-21T16:31:19;16.80;80.40
22645;DHT22;11489;50.834;6.752;2023-03-21T16:33:46;16.80;78.70
22645;DHT22;11489;50.834;6.752;2023-03-21T16:36:21;16.80;80.50
22645;DHT22;11489;50.834;6.752;2023-03-21T16:38:48;16.80;79.70
22645;DHT22;11489;50.834;6.752;2023-03-21T16:41:15;16.80;80.00
22645;DHT22;11489;50.834;6.752;2023-03-21T16:43:42;16.90;79.70
22645;DHT22;11489;50.834;6.752;2023-03-21T16:46:16;16.80;79.20
22645;DHT22;11489;50.834;6.752;2023-03-21T16:48:44;16.80;77.50
22645;DHT22;11489;50.834;6.752;2023-03-21T16:51:15;16.70;78.10
22645;DHT22;11489;50.834;6.752;2023-03-21T16:53:41;16.60;77.00
22645;DHT22;11489;50.834;6.752;2023-03-21T16:56:35;16.50;77.40
22645;DHT22;11489;50.834;6.752;2023-03-21T16:58:58;16.30;76.50
22645;DHT22;11489;50.834;6.752;2023-03-21T17:01:24;16.20;77.10
22645;DHT22;11489;50.834;6.752;2023-03-21T17:03:52;16.00;77.10
22645;DHT22;11489;50.834;6.752;2023-03-21T17:06:20;15.80;77.10
22645;DHT22;11489;50.834;6.752;2023-03-21T17:08:46;15.60;77.20
22645;DHT22;11489;50.834;6.752;2023-03-21T17:11:15;15.50;77.50
22645;DHT22;11489;50.834;6.752;2023-03-21T17:13:42;15.30;77.40
22645;DHT22;11489;50.834;6.752;2023-03-21T17:16:14;15.20;77.50
22645;DHT22;11489;50.834;6.752;2023-03-21T17:18:41;15.00;77.20
22645;DHT22;11489;50.834;6.752;2023-03-21T17:21:16;14.90;77.70
22645;DHT22;11489;50.834;6.752;2023-03-21T17:23:43;14.80;77.00
22645;DHT22;11489;50.834;6.752;2023-03-21T17:26:12;14.70;77.90